createdAt,value
2019-04-21T00:00:35.703Z,96.50
2019-04-21T00:03:11.501Z,96.80
2019-04-21T00:05:58.168Z,96.70
2019-04-21T00:08:33.328Z,97.20
2019-04-21T00:11:05.944Z,97.20
2019-04-21T00:13:25.263Z,97.10
2019-04-21T00:15:48.821Z,97.30
2019-04-21T00:18:40.901Z,97.00
2019-04-21T00:21:17.573Z,97.30
2019-04-21T00:23:55.352Z,97.40
2019-04-21T00:26:25.377Z,97.40
2019-04-21T00:29:05.141Z,97.30
2019-04-21T00:31:24.694Z,97.30
2019-04-21T00:33:44.474Z,97.40
2019-04-21T00:36:18.554Z,97.60
2019-04-21T00:39:18.539Z,97.40
2019-04-21T00:41:38.093Z,97.40
2019-04-21T00:44:02.053Z,97.70
2019-04-21T00:46:31.193Z,97.60
2019-04-21T00:49:09.512Z,97.60
2019-04-21T00:51:58.385Z,97.50
2019-04-21T00:54:23.146Z,97.70
2019-04-21T00:56:49.672Z,97.70
2019-04-21T00:59:19.763Z,98.00
2019-04-21T01:01:52.339Z,97.80
2019-04-21T01:04:15.302Z,98.00
2019-04-21T01:06:55.659Z,98.00
2019-04-21T01:09:19.706Z,97.60
2019-04-21T01:11:51.962Z,97.60
2019-04-21T01:14:29.880Z,98.00
2019-04-21T01:17:02.302Z,97.90
2019-04-21T01:19:23.857Z,98.10
2019-04-21T01:21:36.105Z,98.00
2019-04-21T01:24:13.367Z,97.90
2019-04-21T01:26:48.353Z,97.80
2019-04-21T01:29:35.700Z,97.90
2019-04-21T01:32:05.114Z,97.80
2019-04-21T01:34:30.394Z,97.80
2019-04-21T01:37:02.257Z,97.70
2019-04-21T01:39:34.510Z,97.70
2019-04-21T01:42:03.245Z,98.00
2019-04-21T01:44:59.461Z,98.00
2019-04-21T01:46:59.796Z,98.10
2019-04-21T01:49:29.571Z,98.00
2019-04-21T01:52:17.905Z,98.20
2019-04-21T01:55:00.322Z,98.20
2019-04-21T01:57:54.033Z,98.30
2019-04-21T02:00:32.660Z,98.40
2019-04-21T02:03:12.934Z,98.30
2019-04-21T02:05:44.395Z,98.40
2019-04-21T02:08:05.374Z,98.40
2019-04-21T02:10:53.030Z,98.40
2019-04-21T02:13:08.609Z,98.30
2019-04-21T02:15:46.674Z,98.50
2019-04-21T02:18:12.124Z,98.30
2019-04-21T02:20:35.934Z,98.20
2019-04-21T02:23:28.158Z,98.30
2019-04-21T02:25:44.344Z,98.50
2019-04-21T02:28:22.176Z,98.30
2019-04-21T02:31:09.613Z,98.40
2019-04-21T02:36:15.112Z,98.10
2019-04-21T02:38:40.178Z,98.20
2019-04-21T02:40:57.597Z,98.30
2019-04-21T02:43:54.295Z,98.50
2019-04-21T02:46:19.618Z,98.60
2019-04-21T02:48:43.545Z,98.60
2019-04-21T02:51:13.188Z,98.80
2019-04-21T02:56:09.792Z,99.00
2019-04-21T02:58:57.783Z,99.20
2019-04-21T03:04:38.522Z,99.50
2019-04-21T03:07:14.847Z,99.50
2019-04-21T03:09:41.012Z,99.80
2019-04-21T03:17:18.307Z,99.90
2019-04-21T03:27:28.818Z,99.90
2019-04-21T03:29:52.597Z,99.90
2019-04-21T03:38:37.454Z,99.90
2019-04-21T03:40:05.265Z,99.90
2019-04-21T03:42:44.986Z,99.90
2019-04-21T03:47:38.397Z,99.90
2019-04-21T03:50:18.832Z,99.90
2019-04-21T03:52:53.421Z,99.90
2019-04-21T04:08:59.216Z,99.90
2019-04-21T04:13:57.916Z,99.90
2019-04-21T04:16:18.872Z,99.90
2019-04-21T04:18:52.880Z,99.90
2019-04-21T04:21:30.264Z,99.90
2019-04-21T04:26:33.625Z,99.90
2019-04-21T04:29:12.400Z,99.90
2019-04-21T04:34:15.615Z,99.90
2019-04-21T04:39:43.402Z,99.90
2019-04-21T04:47:18.500Z,99.90
2019-04-21T04:49:50.010Z,99.90
2019-04-21T04:57:42.011Z,99.90
2019-04-21T05:02:27.893Z,99.90
2019-04-21T05:07:21.306Z,99.90
2019-04-21T05:09:52.377Z,99.90
2019-04-21T05:12:19.414Z,99.90
2019-04-21T05:14:51.767Z,99.90
2019-04-21T05:17:28.689Z,99.90
2019-04-21T05:22:22.209Z,99.80
2019-04-21T05:24:44.065Z,99.70
2019-04-21T05:27:34.936Z,99.50
2019-04-21T05:30:16.882Z,99.30
2019-04-21T05:33:20.792Z,99.10
2019-04-21T05:36:12.971Z,99.10
2019-04-21T05:39:08.931Z,99.00
2019-04-21T05:41:31.373Z,98.70
2019-04-21T05:44:09.868Z,98.30
2019-04-21T05:46:47.856Z,97.80
2019-04-21T05:49:21.706Z,97.60
2019-04-21T05:51:55.765Z,97.10
2019-04-21T05:54:39.685Z,96.80
2019-04-21T05:57:02.389Z,96.40
2019-04-21T05:59:33.859Z,96.00
2019-04-21T06:02:13.966Z,95.90
2019-04-21T06:05:02.072Z,95.80
2019-04-21T06:07:20.866Z,95.20
2019-04-21T06:09:43.933Z,94.90
2019-04-21T06:12:13.642Z,94.00
2019-04-21T06:14:48.440Z,93.60
2019-04-21T06:17:18.818Z,93.70
2019-04-21T06:19:50.296Z,93.10
2019-04-21T06:22:14.898Z,93.10
2019-04-21T06:25:15.770Z,92.40
2019-04-21T06:27:27.518Z,92.20
2019-04-21T06:29:54.493Z,92.20
2019-04-21T06:32:38.584Z,91.80
2019-04-21T06:35:13.440Z,92.00
2019-04-21T06:40:30.557Z,90.90
2019-04-21T06:42:51.707Z,90.40
2019-04-21T06:45:25.828Z,90.30
2019-04-21T06:50:15.854Z,89.90
2019-04-21T06:55:20.392Z,87.50
2019-04-21T06:57:46.285Z,88.10
2019-04-21T07:00:21.109Z,88.80
2019-04-21T07:03:16.017Z,89.90
2019-04-21T07:05:26.476Z,86.50
2019-04-21T07:08:07.606Z,86.20
2019-04-21T07:10:30.484Z,84.30
2019-04-21T07:12:51.055Z,83.70
2019-04-21T07:15:32.548Z,83.40
2019-04-21T07:18:04.414Z,83.50
2019-04-21T07:20:30.963Z,83.40
2019-04-21T07:23:01.749Z,83.10
2019-04-21T07:25:39.030Z,83.20
2019-04-21T07:28:07.419Z,82.10
2019-04-21T07:30:39.193Z,81.70
2019-04-21T07:35:41.087Z,81.60
2019-04-21T07:38:11.246Z,80.20
2019-04-21T07:40:33.739Z,78.80
2019-04-21T07:43:05.597Z,79.80
2019-04-21T07:45:36.447Z,78.30
2019-04-21T07:48:20.289Z,77.80
2019-04-21T07:51:22.904Z,77.40
2019-04-21T07:53:55.710Z,77.10
2019-04-21T07:56:06.529Z,75.50
2019-04-21T07:58:56.354Z,74.90
2019-04-21T08:01:28.947Z,75.10
2019-04-21T08:03:58.139Z,75.20
2019-04-21T08:06:27.912Z,74.70
2019-04-21T08:08:53.073Z,74.50
2019-04-21T08:11:21.885Z,73.20
2019-04-21T08:13:57.896Z,72.30
2019-04-21T08:16:30.539Z,71.50
2019-04-21T08:18:59.776Z,72.00
2019-04-21T08:21:36.874Z,70.80
2019-04-21T08:24:01.164Z,69.80
2019-04-21T08:26:38.304Z,67.50
2019-04-21T08:29:13.416Z,68.20
2019-04-21T08:31:38.300Z,67.70
2019-04-21T08:34:08.438Z,67.30
2019-04-21T08:36:38.412Z,68.00
2019-04-21T08:39:06.496Z,67.90
2019-04-21T08:41:40.869Z,66.50
2019-04-21T08:44:09.318Z,66.00
2019-04-21T08:46:48.752Z,65.10
2019-04-21T08:49:15.719Z,64.00
2019-04-21T08:51:50.436Z,63.10
2019-04-21T08:54:15.083Z,62.60
2019-04-21T08:57:09.089Z,60.60
2019-04-21T09:00:06.905Z,59.00
2019-04-21T09:02:40.395Z,58.30
2019-04-21T09:05:11.128Z,58.00
2019-04-21T09:07:45.499Z,57.70
2019-04-21T09:10:14.389Z,57.30
2019-04-21T09:12:44.856Z,56.50
2019-04-21T09:15:14.098Z,56.30
2019-04-21T09:17:36.780Z,55.00
2019-04-21T09:22:48.089Z,54.50
2019-04-21T09:25:26.579Z,54.30
2019-04-21T09:27:51.738Z,54.40
2019-04-21T09:30:06.505Z,52.20
2019-04-21T09:32:36.665Z,52.30
2019-04-21T09:35:10.682Z,52.80
2019-04-21T09:37:45.782Z,52.40
2019-04-21T09:40:08.992Z,52.20
2019-04-21T09:42:48.972Z,52.00
2019-04-21T09:45:12.168Z,50.70
2019-04-21T09:47:49.242Z,50.40
2019-04-21T09:50:13.465Z,49.90
2019-04-21T09:52:52.221Z,49.50
2019-04-21T09:55:19.617Z,49.00
2019-04-21T09:57:51.967Z,49.00
2019-04-21T10:00:22.732Z,48.60
2019-04-21T10:02:56.819Z,47.90
2019-04-21T10:05:19.923Z,47.60
2019-04-21T10:07:50.673Z,47.60
2019-04-21T10:10:20.254Z,46.40
2019-04-21T10:12:50.010Z,46.50
2019-04-21T10:15:21.959Z,46.50
2019-04-21T10:17:54.079Z,46.10
2019-04-21T10:20:24.505Z,45.60
2019-04-21T10:22:55.281Z,46.00
2019-04-21T10:25:25.141Z,45.80
2019-04-21T10:27:54.922Z,45.90
2019-04-21T10:30:25.061Z,45.30
2019-04-21T10:32:54.390Z,45.40
2019-04-21T10:35:25.070Z,45.20
2019-04-21T10:38:08.969Z,43.80
2019-04-21T10:40:25.584Z,44.80
2019-04-21T10:42:56.368Z,44.10
2019-04-21T10:45:26.170Z,44.40
2019-04-21T10:47:56.759Z,43.50
2019-04-21T10:50:26.784Z,43.80
2019-04-21T10:53:09.447Z,42.80
2019-04-21T10:55:55.645Z,42.20
2019-04-21T10:58:12.368Z,42.00
2019-04-21T11:00:42.297Z,42.50
2019-04-21T11:03:46.721Z,42.40
2019-04-21T11:06:18.896Z,42.90
2019-04-21T11:08:52.373Z,43.00
2019-04-21T11:11:19.874Z,42.50
2019-04-21T11:13:50.536Z,41.80
2019-04-21T11:16:21.332Z,41.90
2019-04-21T11:18:51.645Z,43.00
2019-04-21T11:21:21.101Z,39.80
2019-04-21T11:23:50.430Z,39.00
2019-04-21T11:26:20.550Z,39.50
2019-04-21T11:28:50.554Z,40.00
2019-04-21T11:31:20.895Z,38.40
2019-04-21T11:33:51.185Z,39.30
2019-04-21T11:36:21.620Z,38.80
2019-04-21T11:39:25.671Z,38.80
2019-04-21T11:41:47.744Z,39.30
2019-04-21T11:44:18.289Z,38.30
2019-04-21T11:46:48.849Z,38.10
2019-04-21T11:49:19.975Z,37.90
2019-04-21T11:51:49.393Z,37.00
2019-04-21T11:54:19.170Z,37.30
2019-04-21T11:56:48.580Z,38.10
2019-04-21T11:59:18.044Z,38.20
2019-04-21T12:01:47.597Z,37.00
2019-04-21T12:04:17.957Z,36.50
2019-04-21T12:06:49.144Z,36.20
2019-04-21T12:09:18.958Z,35.80
2019-04-21T12:11:49.414Z,35.80
2019-04-21T12:14:19.888Z,37.60
2019-04-21T12:16:49.323Z,36.80
2019-04-21T12:19:20.775Z,36.50
2019-04-21T12:22:01.981Z,36.60
2019-04-21T12:24:21.740Z,36.40
2019-04-21T12:26:51.794Z,36.30
2019-04-21T12:29:21.218Z,36.70
2019-04-21T12:32:07.723Z,35.10
2019-04-21T12:34:37.385Z,35.10
2019-04-21T12:37:06.818Z,34.80
2019-04-21T12:39:36.887Z,35.20
2019-04-21T12:42:06.783Z,34.70
2019-04-21T12:44:37.172Z,33.80
2019-04-21T12:47:07.964Z,34.40
2019-04-21T12:49:38.059Z,35.80
2019-04-21T12:52:09.379Z,34.60
2019-04-21T12:54:39.672Z,35.00
2019-04-21T12:57:09.668Z,34.90
2019-04-21T12:59:39.580Z,34.70
2019-04-21T13:02:09.595Z,35.50
2019-04-21T13:04:40.031Z,35.20
2019-04-21T13:07:09.851Z,34.70
2019-04-21T13:09:40.165Z,35.20
2019-04-21T13:12:11.091Z,34.90
2019-04-21T13:14:40.457Z,36.10
2019-04-21T13:17:09.931Z,35.20
2019-04-21T13:19:39.462Z,35.70
2019-04-21T13:22:09.897Z,35.70
2019-04-21T13:24:39.935Z,36.30
2019-04-21T13:27:11.349Z,35.70
2019-04-21T13:29:41.866Z,36.50
2019-04-21T13:32:12.607Z,36.30
2019-04-21T13:34:42.158Z,36.20
2019-04-21T13:37:11.919Z,36.70
2019-04-21T13:40:26.207Z,36.90
2019-04-21T13:42:43.889Z,36.60
2019-04-21T13:45:08.269Z,36.50
2019-04-21T13:47:38.729Z,37.20
2019-04-21T13:50:08.988Z,37.40
2019-04-21T13:52:38.537Z,36.60
2019-04-21T13:55:09.485Z,37.00
2019-04-21T13:57:40.811Z,36.80
2019-04-21T14:00:11.071Z,36.90
2019-04-21T14:02:40.806Z,36.10
2019-04-21T14:05:13.463Z,35.70
2019-04-21T14:07:42.252Z,36.30
2019-04-21T14:10:14.033Z,35.60
2019-04-21T14:12:44.411Z,36.10
2019-04-21T14:15:14.708Z,36.50
2019-04-21T14:17:44.658Z,36.90
2019-04-21T14:20:15.318Z,35.90
2019-04-21T14:22:44.796Z,35.90
2019-04-21T14:25:15.301Z,35.90
2019-04-21T14:27:48.232Z,36.10
2019-04-21T14:30:16.625Z,36.20
2019-04-21T14:32:47.378Z,36.00
2019-04-21T14:35:18.825Z,36.00
2019-04-21T14:37:48.792Z,35.20
2019-04-21T14:40:23.661Z,36.10
2019-04-21T14:42:50.178Z,36.30
2019-04-21T14:45:45.126Z,37.00
2019-04-21T14:48:32.822Z,37.00
2019-04-21T14:51:31.474Z,37.30
2019-04-21T14:54:08.033Z,37.40
2019-04-21T14:56:37.568Z,37.90
2019-04-21T14:59:07.288Z,36.60
2019-04-21T15:01:37.734Z,37.30
2019-04-21T15:04:08.040Z,37.60
2019-04-21T15:06:39.189Z,37.60
2019-04-21T15:09:11.105Z,37.70
2019-04-21T15:11:40.554Z,37.70
2019-04-21T15:14:09.918Z,37.80
2019-04-21T15:16:40.801Z,38.10
2019-04-21T15:19:10.841Z,38.10
2019-04-21T15:21:40.495Z,37.70
2019-04-21T15:24:09.987Z,38.10
2019-04-21T15:26:40.139Z,37.80
2019-04-21T15:29:10.771Z,38.10
2019-04-21T15:31:43.147Z,38.30
2019-04-21T15:34:13.109Z,40.20
2019-04-21T15:36:43.964Z,39.50
2019-04-21T15:39:13.948Z,39.60
2019-04-21T15:41:44.910Z,41.50
2019-04-21T15:44:14.751Z,39.30
2019-04-21T15:46:44.026Z,40.10
2019-04-21T15:49:13.403Z,39.50
2019-04-21T15:51:43.991Z,37.70
2019-04-21T15:54:14.420Z,37.70
2019-04-21T15:56:56.581Z,38.00
2019-04-21T16:00:04.672Z,38.20
2019-04-21T16:02:50.947Z,38.50
2019-04-21T16:05:20.330Z,37.70
2019-04-21T16:07:49.987Z,37.90
2019-04-21T16:10:30.872Z,38.10
2019-04-21T16:12:52.050Z,38.60
2019-04-21T16:15:22.773Z,38.70
2019-04-21T16:17:53.191Z,39.20
2019-04-21T16:20:24.041Z,38.90
2019-04-21T16:22:54.810Z,38.60
2019-04-21T16:25:24.413Z,38.40
2019-04-21T16:27:55.141Z,38.70
2019-04-21T16:30:25.894Z,39.90
2019-04-21T16:32:56.401Z,39.30
2019-04-21T16:35:26.703Z,39.00
2019-04-21T16:37:58.748Z,40.60
2019-04-21T16:40:27.608Z,45.30
2019-04-21T16:42:58.434Z,46.60
2019-04-21T16:45:28.704Z,47.80
2019-04-21T16:47:59.103Z,49.10
2019-04-21T16:50:29.797Z,49.20
2019-04-21T16:53:03.930Z,49.80
2019-04-21T16:55:41.479Z,50.40
2019-04-21T16:58:29.568Z,50.70
2019-04-21T17:01:12.720Z,51.10
2019-04-21T17:03:38.002Z,51.20
2019-04-21T17:06:07.348Z,50.30
2019-04-21T17:08:36.983Z,50.50
2019-04-21T17:11:14.016Z,50.50
2019-04-21T17:13:38.286Z,50.90
2019-04-21T17:16:38.906Z,50.80
2019-04-21T17:18:51.456Z,51.30
2019-04-21T17:21:12.464Z,51.90
2019-04-21T17:23:41.733Z,52.20
2019-04-21T17:26:11.092Z,52.90
2019-04-21T17:28:40.709Z,52.90
2019-04-21T17:31:10.860Z,52.80
2019-04-21T17:33:41.387Z,53.20
2019-04-21T17:36:11.288Z,53.80
2019-04-21T17:38:41.890Z,54.30
2019-04-21T17:41:21.827Z,54.40
2019-04-21T17:43:43.560Z,54.80
2019-04-21T17:46:20.402Z,55.40
2019-04-21T17:48:45.151Z,56.10
2019-04-21T17:51:39.482Z,56.20
2019-04-21T17:54:21.280Z,56.90
2019-04-21T17:57:04.559Z,57.40
2019-04-21T17:59:45.147Z,57.70
2019-04-21T18:02:03.929Z,58.00
2019-04-21T18:04:39.534Z,58.40
2019-04-21T18:07:29.047Z,58.80
2019-04-21T18:12:31.851Z,59.70
2019-04-21T18:14:59.221Z,60.50
2019-04-21T18:17:18.325Z,61.30
2019-04-21T18:19:51.307Z,62.10
2019-04-21T18:22:41.714Z,62.60
2019-04-21T18:25:28.368Z,63.80
2019-04-21T18:27:44.808Z,65.10
2019-04-21T18:30:42.340Z,66.20
2019-04-21T18:33:21.305Z,66.70
2019-04-21T18:36:22.269Z,68.00
2019-04-21T18:39:16.404Z,69.80
2019-04-21T18:42:04.937Z,70.70
2019-04-21T18:45:05.212Z,71.60
2019-04-21T18:47:37.216Z,72.40
2019-04-21T18:49:54.645Z,73.70
2019-04-21T18:52:45.558Z,75.50
2019-04-21T18:55:12.917Z,76.80
2019-04-21T18:57:39.516Z,77.70
2019-04-21T19:00:08.627Z,78.80
2019-04-21T19:02:42.690Z,78.80
2019-04-21T19:05:11.471Z,79.10
2019-04-21T19:07:55.819Z,79.30
2019-04-21T19:10:26.788Z,79.70
2019-04-21T19:15:32.112Z,79.90
2019-04-21T19:18:36.636Z,79.50
2019-04-21T19:20:32.824Z,80.10
2019-04-21T19:22:58.756Z,80.90
2019-04-21T19:25:31.555Z,81.60
2019-04-21T19:28:03.417Z,82.40
2019-04-21T19:30:39.887Z,83.20
2019-04-21T19:33:10.203Z,83.00
2019-04-21T19:35:23.606Z,83.30
2019-04-21T19:37:59.414Z,83.50
2019-04-21T19:40:44.857Z,83.90
2019-04-21T19:43:03.600Z,83.90
2019-04-21T19:45:38.147Z,84.50
2019-04-21T19:48:15.002Z,84.20
2019-04-21T19:50:51.545Z,84.10
2019-04-21T19:53:08.864Z,84.20
2019-04-21T19:55:32.012Z,83.80
2019-04-21T19:58:03.074Z,85.10
2019-04-21T20:00:32.599Z,84.90
2019-04-21T20:03:03.067Z,85.10
2019-04-21T20:05:43.073Z,86.20
2019-04-21T20:08:17.709Z,85.90
2019-04-21T20:10:58.009Z,86.30
2019-04-21T20:13:35.278Z,86.60
2019-04-21T20:15:57.118Z,86.70
2019-04-21T20:18:21.231Z,86.70
2019-04-21T20:20:39.639Z,86.50
2019-04-21T20:23:16.915Z,87.30
2019-04-21T20:25:47.434Z,87.20
2019-04-21T20:28:22.173Z,87.40
2019-04-21T20:31:01.569Z,87.50
2019-04-21T20:33:49.063Z,88.40
2019-04-21T20:36:03.349Z,88.40
2019-04-21T20:38:29.876Z,89.10
2019-04-21T20:40:53.581Z,89.10
2019-04-21T20:43:38.079Z,89.50
2019-04-21T20:46:08.034Z,90.30
2019-04-21T20:48:31.911Z,90.00
2019-04-21T20:51:23.090Z,90.30
2019-04-21T20:53:36.193Z,90.30
2019-04-21T20:56:05.032Z,90.50
2019-04-21T20:58:42.608Z,90.80
2019-04-21T21:01:29.477Z,90.60
2019-04-21T21:03:46.460Z,91.20
2019-04-21T21:06:09.939Z,91.30
2019-04-21T21:08:44.564Z,91.60
2019-04-21T21:11:21.515Z,91.50
2019-04-21T21:13:49.139Z,91.40
2019-04-21T21:16:29.167Z,91.60
2019-04-21T21:19:04.313Z,91.50
2019-04-21T21:21:20.654Z,92.10
2019-04-21T21:23:56.206Z,92.10
2019-04-21T21:26:25.739Z,92.50
2019-04-21T21:28:54.153Z,92.50
2019-04-21T21:31:33.861Z,92.90
2019-04-21T21:34:08.260Z,93.10
2019-04-21T21:36:26.510Z,93.20
2019-04-21T21:39:01.261Z,93.20
2019-04-21T21:41:22.108Z,93.40
2019-04-21T21:43:47.757Z,93.70
2019-04-21T21:46:31.185Z,94.00
2019-04-21T21:48:59.123Z,94.00
2019-04-21T21:51:29.279Z,94.10
2019-04-21T21:53:48.571Z,94.30
2019-04-21T21:56:18.574Z,94.00
2019-04-21T21:58:49.664Z,93.90
2019-04-21T22:01:21.818Z,94.30
2019-04-21T22:04:01.704Z,94.20
2019-04-21T22:06:23.985Z,94.60
2019-04-21T22:08:52.725Z,94.60
2019-04-21T22:11:22.200Z,95.30
2019-04-21T22:13:57.682Z,95.00
2019-04-21T22:16:28.629Z,95.60
2019-04-21T22:19:22.926Z,95.90
2019-04-21T22:21:41.633Z,95.40
2019-04-21T22:24:03.553Z,96.10
2019-04-21T22:26:27.259Z,95.50
2019-04-21T22:28:58.049Z,95.90
2019-04-21T22:31:31.578Z,96.20
2019-04-21T22:34:03.826Z,96.80
2019-04-21T22:36:43.772Z,96.80
2019-04-21T22:39:20.789Z,96.70
2019-04-21T22:41:40.510Z,96.80
2019-04-21T22:44:02.822Z,96.80
2019-04-21T22:46:32.702Z,96.70
2019-04-21T22:49:08.370Z,96.80
2019-04-21T22:51:38.431Z,97.30
2019-04-21T22:54:04.330Z,97.00
2019-04-21T22:56:35.559Z,97.30
2019-04-21T22:59:09.668Z,97.40
2019-04-21T23:01:41.464Z,97.60
2019-04-21T23:04:08.548Z,97.70
2019-04-21T23:06:39.203Z,98.00
2019-04-21T23:09:10.880Z,98.20
2019-04-21T23:11:45.408Z,98.30
2019-04-21T23:14:13.167Z,98.30
2019-04-21T23:16:45.668Z,98.40
2019-04-21T23:19:31.344Z,98.70
2019-04-21T23:22:03.420Z,98.80
2019-04-21T23:24:42.068Z,98.90
2019-04-21T23:27:00.001Z,99.10
2019-04-21T23:29:47.878Z,99.10
2019-04-21T23:32:03.128Z,98.90
2019-04-21T23:34:26.608Z,99.20
2019-04-21T23:37:00.210Z,98.90
2019-04-21T23:39:28.427Z,98.90
2019-04-21T23:41:55.383Z,99.40
2019-04-21T23:44:25.984Z,99.40
2019-04-21T23:47:00.572Z,99.30
2019-04-21T23:49:37.975Z,99.80
2019-04-21T23:52:02.981Z,99.60
2019-04-21T23:54:29.297Z,99.80
2019-04-21T23:57:02.895Z,99.90
2019-04-21T23:59:32.488Z,99.70
